PWSweather.com
Personal Weather Stations
Station Observations
SWHWX01
St AppolinardFR 38160

St AppolinardFR 38160

Lat: 45.191, Lon: 5.268

Elevation: 1460

Station Type: Davis Vantage Pro2 Plus

www.sweetwebhome.com/?show=wxindex

High Low Average
Temperature 51.5°F10.8°C 38.0°F3.3°C 43.8°F6.6°C
Dew Point 38.9°F3.8°C 31.0°F-0.6°C 35.0°F1.7°C
Winds 7.1 mph 11.4 kmh Calm Calm 2.0 mph ENE3.2 kmh ENE
Wind Gusts 10.0 mph16.1 kmh -- 3.0 mph4.8 kmh
Humidity 92% 48% 73%
Pressure 30.03 in1016.9 mb 29.87 in1011.5 mb -
Precipitation 0.01 in0.3 mm - -
Hour Temp Dew Point Humidity Winds Wind Gusts Pressure Precip Precip Rate Daily Precip Total
12:00 AM 38.3°F3.5°C 35.3°F1.8°C 89% Calm Calm 1.0 mph1.6 kmh 29.84 in1010.5 mb - 0.00 in0.0 mm 0.01 in0.3 mm
12:30 AM 38.3°F3.5°C 35.6°F2.0°C 90% Calm Calm -- 29.86 in1011.2 mb - 0.00 in0.0 mm 0.01 in0.3 mm
01:00 AM 38.0°F3.3°C 35.6°F2.0°C 91% 0.5 mph NNE0.8 kmh NNE 2.0 mph3.2 kmh 29.87 in1011.5 mb - 0.00 in0.0 mm 0.01 in0.3 mm
01:30 AM 38.0°F3.3°C 35.9°F2.2°C 92% Calm Calm -- 29.88 in1011.9 mb - 0.00 in0.0 mm 0.01 in0.3 mm
02:00 AM 38.3°F3.5°C 35.9°F2.2°C 91% Calm Calm -- 29.89 in1012.2 mb - 0.00 in0.0 mm 0.01 in0.3 mm
02:30 AM 38.4°F3.6°C 35.7°F2.1°C 90% Calm Calm -- 29.91 in1012.9 mb - 0.00 in0.0 mm 0.01 in0.3 mm
03:00 AM 38.6°F3.7°C 36.2°F2.3°C 91% 1.3 mph NNE2.1 kmh NNE 2.0 mph3.2 kmh 29.91 in1012.9 mb - 0.00 in0.0 mm 0.01 in0.3 mm
03:30 AM 38.6°F3.7°C 36.2°F2.3°C 91% Calm Calm -- 29.91 in1012.9 mb - 0.00 in0.0 mm 0.01 in0.3 mm
04:00 AM 38.8°F3.8°C 36.4°F2.4°C 91% Calm Calm -- 29.92 in1013.2 mb - 0.00 in0.0 mm 0.01 in0.3 mm
04:30 AM 39.0°F3.9°C 36.6°F2.6°C 91% Calm Calm -- 29.93 in1013.5 mb - 0.00 in0.0 mm 0.01 in0.3 mm
05:00 AM 39.1°F3.9°C 36.7°F2.6°C 91% 0.4 mph NNE0.6 kmh NNE 2.0 mph3.2 kmh 29.93 in1013.5 mb - 0.00 in0.0 mm 0.01 in0.3 mm
05:30 AM 39.2°F4.0°C 36.3°F2.4°C 89% 0.2 mph NNE0.3 kmh NNE 1.0 mph1.6 kmh 29.94 in1013.9 mb - 0.00 in0.0 mm 0.01 in0.3 mm
06:00 AM 39.1°F3.9°C 36.1°F2.3°C 89% 0.4 mph NNE0.6 kmh NNE 2.0 mph3.2 kmh 29.95 in1014.2 mb - 0.00 in0.0 mm 0.01 in0.3 mm
06:30 AM 39.1°F3.9°C 36.1°F2.3°C 89% 0.1 mph NNE0.2 kmh NNE -- 29.96 in1014.6 mb - 0.00 in0.0 mm 0.01 in0.3 mm
07:00 AM 39.0°F3.9°C 36.3°F2.4°C 90% Calm Calm -- 29.97 in1014.9 mb - 0.00 in0.0 mm 0.01 in0.3 mm
07:30 AM 39.1°F3.9°C 36.4°F2.4°C 90% Calm Calm 1.0 mph1.6 kmh 29.98 in1015.2 mb - 0.00 in0.0 mm 0.01 in0.3 mm
08:00 AM 39.8°F4.3°C 37.1°F2.8°C 90% 0.1 mph NNE0.2 kmh NNE 1.0 mph1.6 kmh 29.99 in1015.6 mb - 0.00 in0.0 mm 0.01 in0.3 mm
08:30 AM 40.6°F4.8°C 36.7°F2.6°C 86% 3.7 mph NNW6.0 kmh NNW 8.0 mph12.9 kmh 30.00 in1015.9 mb - 0.00 in0.0 mm 0.01 in0.3 mm
09:00 AM 40.5°F4.7°C 36.7°F2.6°C 86% 0.6 mph N1.0 kmh N 4.0 mph6.4 kmh 30.01 in1016.3 mb - 0.00 in0.0 mm 0.01 in0.3 mm
09:30 AM 41.3°F5.2°C 36.9°F2.7°C 84% 1.3 mph NNE2.1 kmh NNE 3.0 mph4.8 kmh 30.02 in1016.6 mb - 0.00 in0.0 mm 0.01 in0.3 mm
10:00 AM 43.2°F6.2°C 37.5°F3.1°C 80% 0.8 mph NNE1.3 kmh NNE 3.0 mph4.8 kmh 30.03 in1016.9 mb - 0.00 in0.0 mm 0.01 in0.3 mm
10:30 AM 44.7°F7.1°C 38.9°F3.8°C 80% 6.5 mph E10.5 kmh E 7.0 mph11.3 kmh 30.03 in1016.9 mb - 0.00 in0.0 mm 0.01 in0.3 mm
11:00 AM 43.7°F6.5°C 38.3°F3.5°C 81% Calm Calm -- 30.03 in1016.9 mb - 0.00 in0.0 mm 0.01 in0.3 mm
11:30 AM 44.5°F6.9°C 34.6°F1.4°C 68% Calm Calm -- 30.03 in1016.9 mb - 0.00 in0.0 mm 0.01 in0.3 mm
12:00 PM 45.3°F7.4°C 36.1°F2.3°C 70% 1.1 mph NE1.8 kmh NE 3.0 mph4.8 kmh 30.03 in1016.9 mb - 0.00 in0.0 mm 0.01 in0.3 mm
12:30 PM 46.6°F8.1°C 37.3°F2.9°C 70% 4.7 mph ENE7.6 kmh ENE 8.0 mph12.9 kmh 30.02 in1016.6 mb - 0.00 in0.0 mm 0.01 in0.3 mm
01:00 PM 49.0°F9.4°C 37.4°F3.0°C 64% 4.2 mph NE6.8 kmh NE 5.0 mph8.0 kmh 30.01 in1016.3 mb - 0.00 in0.0 mm 0.01 in0.3 mm
01:30 PM 48.0°F8.9°C 36.8°F2.7°C 65% 2.9 mph NE4.7 kmh NE 5.0 mph8.0 kmh 30.00 in1015.9 mb - 0.00 in0.0 mm 0.01 in0.3 mm
02:00 PM 49.9°F9.9°C 37.8°F3.2°C 63% 4.4 mph ENE7.1 kmh ENE 8.0 mph12.9 kmh 30.00 in1015.9 mb - 0.00 in0.0 mm 0.01 in0.3 mm
02:30 PM 48.2°F9.0°C 36.5°F2.5°C 64% 7.1 mph ENE11.4 kmh ENE 10.0 mph16.1 kmh 30.00 in1015.9 mb - 0.00 in0.0 mm 0.01 in0.3 mm
03:00 PM 50.7°F10.4°C 32.2°F0.1°C 49% 4.6 mph NW7.4 kmh NW 5.0 mph8.0 kmh 30.00 in1015.9 mb - 0.00 in0.0 mm 0.01 in0.3 mm
03:30 PM 50.8°F10.4°C 33.8°F1.0°C 52% 0.7 mph NW1.1 kmh NW 3.0 mph4.8 kmh 30.00 in1015.9 mb - 0.00 in0.0 mm 0.01 in0.3 mm
04:00 PM 51.5°F10.8°C 32.4°F0.2°C 48% 1.8 mph NW2.9 kmh NW 3.0 mph4.8 kmh 29.98 in1015.2 mb - 0.00 in0.0 mm 0.01 in0.3 mm
04:30 PM 51.0°F10.6°C 34.0°F1.1°C 52% 3.0 mph NE4.8 kmh NE 7.0 mph11.3 kmh 29.99 in1015.6 mb - 0.00 in0.0 mm 0.01 in0.3 mm
05:00 PM 50.8°F10.4°C 34.7°F1.5°C 54% 2.4 mph NE3.9 kmh NE 3.0 mph4.8 kmh 29.98 in1015.2 mb - 0.00 in0.0 mm 0.01 in0.3 mm
05:30 PM 50.3°F10.2°C 32.4°F0.2°C 50% 2.9 mph ENE4.7 kmh ENE 5.0 mph8.0 kmh 29.98 in1015.2 mb - 0.00 in0.0 mm 0.01 in0.3 mm
06:00 PM 49.7°F9.8°C 34.2°F1.2°C 55% 2.3 mph E3.7 kmh E 4.0 mph6.4 kmh 29.97 in1014.9 mb - 0.00 in0.0 mm 0.01 in0.3 mm
06:30 PM 48.8°F9.3°C 34.2°F1.2°C 57% 2.9 mph NE4.7 kmh NE 8.0 mph12.9 kmh 29.97 in1014.9 mb - 0.00 in0.0 mm 0.01 in0.3 mm
07:00 PM 47.8°F8.8°C 32.9°F0.5°C 56% 1.6 mph N2.6 kmh N 7.0 mph11.3 kmh 29.97 in1014.9 mb - 0.00 in0.0 mm 0.01 in0.3 mm
07:30 PM 46.4°F8.0°C 32.4°F0.2°C 58% 2.1 mph N3.4 kmh N 3.0 mph4.8 kmh 29.98 in1015.2 mb - 0.00 in0.0 mm 0.01 in0.3 mm
08:00 PM 44.3°F6.8°C 32.5°F0.3°C 63% 3.2 mph N5.1 kmh N 4.0 mph6.4 kmh 29.98 in1015.2 mb - 0.00 in0.0 mm 0.01 in0.3 mm
08:30 PM 44.5°F6.9°C 31.5°F-0.3°C 60% Calm Calm 1.0 mph1.6 kmh 29.99 in1015.6 mb - 0.00 in0.0 mm 0.01 in0.3 mm
09:00 PM 44.5°F6.9°C 31.5°F-0.3°C 60% 3.5 mph N5.6 kmh N 4.0 mph6.4 kmh 30.00 in1015.9 mb - 0.00 in0.0 mm 0.01 in0.3 mm
09:30 PM 44.5°F6.9°C 31.0°F-0.6°C 59% 2.3 mph N3.7 kmh N 4.0 mph6.4 kmh 29.99 in1015.6 mb - 0.00 in0.0 mm 0.01 in0.3 mm
10:00 PM 44.8°F7.1°C 31.4°F-0.3°C 59% 1.9 mph N3.1 kmh N 3.0 mph4.8 kmh 30.00 in1015.9 mb - 0.00 in0.0 mm 0.01 in0.3 mm
10:30 PM 44.2°F6.8°C 32.0°F0.0°C 62% 0.1 mph N0.2 kmh N 2.0 mph3.2 kmh 30.00 in1015.9 mb - 0.00 in0.0 mm 0.01 in0.3 mm
11:00 PM 42.1°F5.6°C 31.6°F-0.2°C 66% 0.6 mph N1.0 kmh N 2.0 mph3.2 kmh 29.99 in1015.6 mb - 0.00 in0.0 mm 0.00 in0.0 mm
11:30 PM 42.7°F5.9°C 31.7°F-0.2°C 65% 2.7 mph N4.3 kmh N 3.0 mph4.8 kmh 29.97 in1014.9 mb - 0.00 in0.0 mm 0.00 in0.0 mm